createdAt,value
2023-01-19T00:22:12.373Z,31.38
2023-01-19T00:25:44.491Z,35.93
2023-01-19T00:29:16.326Z,29.30
2023-01-19T00:32:48.748Z,26.35
2023-01-19T00:36:20.663Z,27.10
2023-01-19T00:39:53.260Z,24.25
2023-01-19T00:43:25.416Z,24.45
2023-01-19T00:46:57.685Z,25.63
2023-01-19T00:50:31.810Z,22.38
2023-01-19T00:54:05.033Z,28.90
2023-01-19T00:57:40.189Z,28.58
2023-01-19T01:01:12.536Z,21.07
2023-01-19T01:04:44.408Z,28.30
2023-01-19T01:08:16.589Z,23.77
2023-01-19T01:11:51.236Z,22.90
2023-01-19T01:15:23.572Z,25.38
2023-01-19T01:18:55.461Z,24.13
2023-01-19T01:22:27.555Z,24.40
2023-01-19T01:26:00.140Z,23.35
2023-01-19T01:29:35.459Z,21.20
2023-01-19T01:33:13.320Z,20.92
2023-01-19T01:36:45.699Z,18.77
2023-01-19T01:40:18.687Z,21.48
2023-01-19T01:43:58.798Z,20.10
2023-01-19T01:47:45.720Z,19.70
2023-01-19T01:51:31.261Z,22.48
2023-01-19T01:55:08.628Z,23.75
2023-01-19T01:58:41.257Z,22.53
2023-01-19T02:02:38.472Z,23.17
2023-01-19T02:06:13.256Z,22.60
2023-01-19T02:10:03.684Z,24.13
2023-01-19T02:13:43.877Z,20.57
2023-01-19T02:17:16.247Z,24.23
2023-01-19T02:21:08.528Z,20.92
2023-01-19T02:24:40.912Z,23.77
2023-01-19T02:28:15.180Z,24.00
2023-01-19T02:31:47.823Z,23.05
2023-01-19T02:35:20.767Z,22.40
2023-01-19T02:38:56.258Z,24.23
2023-01-19T02:42:33.451Z,25.33
2023-01-19T02:46:05.328Z,19.83
2023-01-19T02:49:37.742Z,20.57
2023-01-19T02:53:29.687Z,24.40
2023-01-19T02:57:36.289Z,23.80
2023-01-19T03:01:54.111Z,17.60
2023-01-19T03:05:46.166Z,26.08
2023-01-19T03:09:41.698Z,22.80
2023-01-19T03:13:38.891Z,22.67
2023-01-19T03:17:13.329Z,20.45
2023-01-19T03:20:45.751Z,20.92
2023-01-19T03:24:21.514Z,20.25
2023-01-19T03:27:56.972Z,21.17
2023-01-19T03:31:32.081Z,23.48
2023-01-19T03:35:11.182Z,23.30
2023-01-19T03:38:44.989Z,20.77
2023-01-19T03:42:18.224Z,20.95
2023-01-19T03:45:51.166Z,22.65
2023-01-19T03:49:23.034Z,22.37
2023-01-19T03:53:09.713Z,19.88
2023-01-19T03:56:44.775Z,19.27
2023-01-19T04:00:17.230Z,24.13
2023-01-19T04:03:50.764Z,22.10
2023-01-19T04:07:22.921Z,23.45
2023-01-19T04:10:57.526Z,25.30
2023-01-19T04:14:29.743Z,27.57
2023-01-19T04:18:01.769Z,24.77
2023-01-19T04:21:33.988Z,28.45
2023-01-19T04:25:07.045Z,27.67
2023-01-19T04:28:39.301Z,26.92
2023-01-19T04:32:13.239Z,25.00
2023-01-19T04:35:46.789Z,23.67
2023-01-19T04:39:18.702Z,24.00
2023-01-19T04:42:51.327Z,31.65
2023-01-19T04:46:23.158Z,25.30
2023-01-19T04:49:55.323Z,25.33
2023-01-19T04:53:29.041Z,27.35
2023-01-19T04:57:03.453Z,27.58
2023-01-19T05:00:35.818Z,30.33
2023-01-19T05:04:08.536Z,28.80
2023-01-19T05:07:40.370Z,25.42
2023-01-19T05:11:12.440Z,26.98
2023-01-19T05:14:44.326Z,24.97
2023-01-19T05:18:16.482Z,30.80
2023-01-19T05:21:48.266Z,28.27
2023-01-19T05:25:20.845Z,31.03
2023-01-19T05:28:55.341Z,31.58
2023-01-19T05:32:27.866Z,31.85
2023-01-19T05:35:59.769Z,22.43
2023-01-19T05:39:32.355Z,29.73
2023-01-19T05:43:05.512Z,30.45
2023-01-19T05:46:42.914Z,24.55
2023-01-19T05:50:15.211Z,25.97
2023-01-19T05:53:47.349Z,22.13
2023-01-19T05:57:19.400Z,21.63
2023-01-19T06:00:51.666Z,19.43
2023-01-19T06:04:23.769Z,19.50
2023-01-19T06:07:57.282Z,17.38
2023-01-19T06:11:29.182Z,21.80
2023-01-19T06:15:01.911Z,21.13
2023-01-19T06:18:34.184Z,29.00
2023-01-19T06:22:06.503Z,27.98
2023-01-19T06:25:38.396Z,24.80
2023-01-19T06:29:14.768Z,19.67
2023-01-19T06:32:47.450Z,24.83
2023-01-19T06:36:19.513Z,26.90
2023-01-19T06:39:54.305Z,27.40
2023-01-19T06:43:26.995Z,25.88
2023-01-19T06:47:14.921Z,26.47
2023-01-19T06:50:48.890Z,31.75
2023-01-19T06:54:20.752Z,25.20
2023-01-19T06:57:58.731Z,30.45
2023-01-19T07:01:41.045Z,35.13
2023-01-19T07:05:40.854Z,25.88
2023-01-19T07:09:21.887Z,37.40
2023-01-19T07:13:00.251Z,33.80
2023-01-19T07:16:38.988Z,30.02
2023-01-19T07:20:44.219Z,28.13
2023-01-19T07:24:29.605Z,35.60
2023-01-19T07:28:06.772Z,33.20
2023-01-19T07:32:00.174Z,36.63
2023-01-19T07:35:33.649Z,40.03
2023-01-19T07:39:07.394Z,33.23
2023-01-19T07:42:39.652Z,35.25
2023-01-19T07:46:11.590Z,31.90
2023-01-19T07:49:43.788Z,32.40
2023-01-19T07:53:16.839Z,35.42
2023-01-19T07:56:49.319Z,23.42
2023-01-19T08:00:24.880Z,25.13
2023-01-19T08:04:19.529Z,25.10
2023-01-19T08:08:23.744Z,19.75
2023-01-19T08:11:58.648Z,20.58
2023-01-19T08:16:09.320Z,23.43
2023-01-19T08:19:44.709Z,22.95
2023-01-19T08:23:18.258Z,23.35
2023-01-19T08:26:50.737Z,22.07
2023-01-19T08:30:24.841Z,15.75
2023-01-19T08:33:58.481Z,15.35
2023-01-19T08:37:34.292Z,19.30
2023-01-19T08:41:06.862Z,15.02
2023-01-19T08:44:46.629Z,16.75
2023-01-19T08:48:23.595Z,18.05
2023-01-19T08:51:55.434Z,11.90
2023-01-19T08:55:28.429Z,22.00
2023-01-19T08:59:08.980Z,22.92
2023-01-19T09:02:42.188Z,20.03
2023-01-19T09:06:18.593Z,22.23
2023-01-19T09:09:50.940Z,21.48
2023-01-19T09:13:23.410Z,20.33
2023-01-19T09:16:56.481Z,21.33
2023-01-19T09:20:32.243Z,18.90
2023-01-19T09:24:04.624Z,12.63
2023-01-19T09:27:36.685Z,22.50
2023-01-19T09:31:09.243Z,15.77
2023-01-19T09:34:41.626Z,14.90
2023-01-19T09:38:15.293Z,14.83
2023-01-19T09:42:02.798Z,17.23
2023-01-19T09:45:36.967Z,19.27
2023-01-19T09:49:33.322Z,12.60
2023-01-19T09:53:14.348Z,22.38
2023-01-19T09:56:51.302Z,21.83
2023-01-19T10:00:28.040Z,22.63
2023-01-19T10:04:38.727Z,17.73
2023-01-19T10:08:41.135Z,14.15
2023-01-19T10:12:32.172Z,16.10
2023-01-19T10:16:13.216Z,20.20
2023-01-19T10:19:54.630Z,12.77
2023-01-19T10:23:38.315Z,17.42
2023-01-19T10:27:24.686Z,20.03
2023-01-19T10:31:00.435Z,19.52
2023-01-19T10:34:36.738Z,18.92
2023-01-19T10:38:14.175Z,21.58
2023-01-19T10:41:54.642Z,16.30
2023-01-19T10:45:31.624Z,22.90
2023-01-19T10:49:04.327Z,16.73
2023-01-19T10:52:39.878Z,15.87
2023-01-19T10:56:24.898Z,18.85
2023-01-19T10:59:58.089Z,19.33
2023-01-19T11:03:31.886Z,17.83
2023-01-19T11:07:18.719Z,19.35
2023-01-19T11:11:00.759Z,20.45
2023-01-19T11:14:32.932Z,13.65
2023-01-19T11:18:06.398Z,20.57
2023-01-19T11:21:38.833Z,18.50
2023-01-19T11:25:22.864Z,18.45
2023-01-19T11:28:58.452Z,18.40
2023-01-19T11:32:33.113Z,17.20
2023-01-19T11:36:15.934Z,14.23
2023-01-19T11:39:52.976Z,17.33
2023-01-19T11:43:47.462Z,16.00
2023-01-19T11:47:33.388Z,14.52
2023-01-19T11:51:14.133Z,15.98
2023-01-19T11:54:52.667Z,18.40
2023-01-19T11:58:26.387Z,21.05
2023-01-19T12:02:05.204Z,17.42
2023-01-19T12:05:42.230Z,19.97
2023-01-19T12:09:21.824Z,19.50
2023-01-19T12:12:55.134Z,19.98
2023-01-19T12:16:31.548Z,16.27
2023-01-19T12:20:18.503Z,19.50
2023-01-19T12:24:08.876Z,21.98
2023-01-19T12:27:43.416Z,20.05
2023-01-19T12:31:20.580Z,19.13
2023-01-19T12:34:52.872Z,21.92
2023-01-19T12:39:04.651Z,19.48
2023-01-19T12:42:36.914Z,18.00
2023-01-19T12:46:31.836Z,17.17
2023-01-19T12:50:07.755Z,18.15
2023-01-19T12:53:39.515Z,19.20
2023-01-19T12:57:41.913Z,18.52
2023-01-19T13:01:19.031Z,18.35
2023-01-19T13:05:28.513Z,19.92
2023-01-19T13:09:00.938Z,24.90
2023-01-19T13:12:33.213Z,20.00
2023-01-19T13:16:20.152Z,17.15
2023-01-19T13:20:29.653Z,19.80
2023-01-19T13:24:17.142Z,19.73
2023-01-19T13:27:49.990Z,23.83
2023-01-19T13:31:23.079Z,22.33
2023-01-19T13:35:02.073Z,23.67
2023-01-19T13:38:34.578Z,22.13
2023-01-19T13:42:14.835Z,16.92
2023-01-19T13:45:52.408Z,20.83
2023-01-19T13:49:36.315Z,25.92
2023-01-19T13:53:20.543Z,26.15
2023-01-19T13:56:52.536Z,27.00
2023-01-19T14:00:30.828Z,26.70
2023-01-19T14:04:02.766Z,25.38
2023-01-19T14:07:34.936Z,27.47
2023-01-19T14:11:13.443Z,27.55
2023-01-19T14:14:49.611Z,30.42
2023-01-19T14:18:24.594Z,31.65
2023-01-19T14:22:01.730Z,33.53
2023-01-19T14:25:36.051Z,37.22
2023-01-19T14:29:31.071Z,32.03
2023-01-19T14:33:03.910Z,29.80
2023-01-19T14:36:39.370Z,33.20
2023-01-19T14:40:12.738Z,37.72
2023-01-19T14:43:45.723Z,35.50
2023-01-19T14:47:39.210Z,38.67
2023-01-19T14:51:18.004Z,38.20
2023-01-19T14:54:50.631Z,35.95
2023-01-19T14:58:26.070Z,35.93
2023-01-19T15:01:59.764Z,43.15
2023-01-19T15:05:33.622Z,37.00
2023-01-19T15:09:05.569Z,33.27
2023-01-19T15:12:37.679Z,35.60
2023-01-19T15:16:09.900Z,48.03
2023-01-19T15:19:41.973Z,47.63
2023-01-19T15:23:13.971Z,39.65
2023-01-19T15:26:46.206Z,47.65
2023-01-19T15:30:24.033Z,48.33
2023-01-19T15:33:56.710Z,44.27
2023-01-19T15:37:28.588Z,42.97
2023-01-19T15:41:00.932Z,42.05
2023-01-19T15:44:32.742Z,36.40
2023-01-19T15:48:07.588Z,43.40
2023-01-19T15:51:39.438Z,54.63
2023-01-19T15:55:12.482Z,50.17
2023-01-19T15:58:45.050Z,49.17
2023-01-19T16:02:17.223Z,40.25
2023-01-19T16:05:49.244Z,43.00
2023-01-19T16:09:21.735Z,48.40
2023-01-19T16:12:54.151Z,40.15
2023-01-19T16:16:27.912Z,46.15
2023-01-19T16:20:00.133Z,48.00
2023-01-19T16:23:31.889Z,40.33
2023-01-19T16:27:04.085Z,44.88
2023-01-19T16:30:36.139Z,41.90
2023-01-19T16:34:09.001Z,42.45
2023-01-19T16:37:42.325Z,43.53
2023-01-19T16:41:14.361Z,43.08
2023-01-19T16:44:46.175Z,43.97
2023-01-19T16:48:18.474Z,51.03
2023-01-19T16:51:51.267Z,38.78
2023-01-19T16:55:23.508Z,40.33
2023-01-19T16:59:01.347Z,36.15
2023-01-19T17:02:33.617Z,24.85
2023-01-19T17:06:07.615Z,43.37
2023-01-19T17:09:39.774Z,43.05
2023-01-19T17:13:12.054Z,44.47
2023-01-19T17:16:44.441Z,36.45
2023-01-19T17:20:19.146Z,49.20
2023-01-19T17:23:53.708Z,45.55
2023-01-19T17:27:26.236Z,42.30
2023-01-19T17:31:05.835Z,43.13
2023-01-19T17:34:37.874Z,46.80
2023-01-19T17:38:12.636Z,47.35
2023-01-19T17:41:44.488Z,55.60
2023-01-19T17:45:16.881Z,50.70
2023-01-19T17:49:01.626Z,44.63
2023-01-19T17:52:36.697Z,48.53
2023-01-19T17:56:12.505Z,52.60
2023-01-19T17:59:49.122Z,45.95
2023-01-19T18:03:21.616Z,51.13
2023-01-19T18:06:53.652Z,45.73
2023-01-19T18:10:25.863Z,56.83
2023-01-19T18:13:58.434Z,56.15
2023-01-19T18:17:31.236Z,53.70
2023-01-19T18:21:05.851Z,56.97
2023-01-19T18:24:37.967Z,63.95
2023-01-19T18:28:10.028Z,56.20
2023-01-19T18:31:42.866Z,49.17
2023-01-19T18:35:16.542Z,62.50
2023-01-19T18:38:48.415Z,64.18
2023-01-19T18:42:20.444Z,53.77
2023-01-19T18:45:54.479Z,51.30
2023-01-19T18:49:26.668Z,48.55
2023-01-19T18:52:59.068Z,43.03
2023-01-19T18:56:30.934Z,41.88
2023-01-19T19:00:04.387Z,48.58
2023-01-19T19:03:36.117Z,45.78
2023-01-19T19:07:08.762Z,44.10
2023-01-19T19:10:42.279Z,45.22
2023-01-19T19:14:14.085Z,46.25
2023-01-19T19:17:46.688Z,34.07
2023-01-19T19:21:20.253Z,46.47
2023-01-19T19:24:52.336Z,38.28
2023-01-19T19:28:24.321Z,33.93
2023-01-19T19:31:56.977Z,38.80
2023-01-19T19:35:28.723Z,35.33
2023-01-19T19:39:00.995Z,48.00
2023-01-19T19:42:37.055Z,39.50
2023-01-19T19:46:12.353Z,33.75
2023-01-19T19:49:45.200Z,37.28
2023-01-19T19:53:17.435Z,35.10
2023-01-19T19:56:52.569Z,40.80
2023-01-19T20:00:25.025Z,28.10
2023-01-19T20:03:57.322Z,38.83
2023-01-19T20:07:29.896Z,35.72
2023-01-19T20:11:16.714Z,28.08
2023-01-19T20:14:49.033Z,43.35
2023-01-19T20:18:21.562Z,29.13
2023-01-19T20:21:53.544Z,32.60
2023-01-19T20:25:26.707Z,32.13
2023-01-19T20:29:02.903Z,37.87
2023-01-19T20:32:35.247Z,33.65
2023-01-19T20:36:07.604Z,37.38
2023-01-19T20:39:39.523Z,34.13
2023-01-19T20:43:11.958Z,38.17
2023-01-19T20:46:43.925Z,42.45
2023-01-19T20:50:16.448Z,43.28
2023-01-19T20:53:48.323Z,33.47
2023-01-19T20:57:20.387Z,41.80
2023-01-19T21:00:52.399Z,40.53
2023-01-19T21:04:24.940Z,52.57
2023-01-19T21:07:56.779Z,56.00
2023-01-19T21:11:29.422Z,44.10
2023-01-19T21:15:01.431Z,54.37
2023-01-19T21:18:34.375Z,49.33
2023-01-19T21:22:06.373Z,50.20
2023-01-19T21:25:39.678Z,51.83
2023-01-19T21:29:14.106Z,48.40
2023-01-19T21:32:46.284Z,49.53
2023-01-19T21:36:18.270Z,51.58
2023-01-19T21:39:50.615Z,44.23
2023-01-19T21:43:24.477Z,50.28
2023-01-19T21:46:56.805Z,42.70
2023-01-19T21:50:30.408Z,46.87
2023-01-19T21:54:03.949Z,57.05
2023-01-19T21:57:36.166Z,45.45
2023-01-19T22:01:15.442Z,49.80
2023-01-19T22:04:47.619Z,45.27
2023-01-19T22:08:19.860Z,44.15
2023-01-19T22:11:52.059Z,42.72
2023-01-19T22:15:23.834Z,43.87
2023-01-19T22:19:02.351Z,46.78
2023-01-19T22:22:34.640Z,43.28
2023-01-19T22:26:08.254Z,36.37
2023-01-19T22:29:40.252Z,37.45
2023-01-19T22:33:12.111Z,43.45
2023-01-19T22:36:44.487Z,38.13
2023-01-19T22:40:16.708Z,43.57
2023-01-19T22:43:50.294Z,34.80
2023-01-19T22:47:23.076Z,50.15
2023-01-19T22:50:58.244Z,46.17
2023-01-19T22:54:30.257Z,44.22
2023-01-19T22:58:02.274Z,44.75
2023-01-19T23:01:40.127Z,51.53
2023-01-19T23:05:12.710Z,45.92
2023-01-19T23:08:44.997Z,46.38
2023-01-19T23:12:17.444Z,40.75
2023-01-19T23:15:49.352Z,40.00
2023-01-19T23:19:22.119Z,35.05
2023-01-19T23:22:54.109Z,40.63
2023-01-19T23:26:27.195Z,44.73
2023-01-19T23:30:00.138Z,44.53
2023-01-19T23:33:32.105Z,44.28
2023-01-19T23:37:03.846Z,53.33
2023-01-19T23:40:36.012Z,48.72
2023-01-19T23:44:08.263Z,48.00
2023-01-19T23:47:43.361Z,38.22
2023-01-19T23:51:17.906Z,43.47
2023-01-19T23:54:50.943Z,43.83
2023-01-19T23:58:23.373Z,40.53
